Time;durP1;ratioP1;P1;durP2;ratioP2;P2;SDS_P1;SDS_P2;PMS_P1;PMS_P2;Temp;Humidity;BMP_temperature;BMP_pressure;BME280_temperature;BME280_humidity;BME280_pressure;Samples;Min_cycle;Max_cycle;Signal;HPM_P1;HPM_P2
2022/10/29 00:01:19;;;;;;;34.97;9.25;;;12.30;99.90;;;;;;5076139;28;20113;-71
2022/10/29 00:03:47;;;;;;;28.85;7.85;;;12.30;99.90;;;;;;5076730;28;20080;-72
2022/10/29 00:06:13;;;;;;;33.30;9.57;;;12.30;99.90;;;;;;5053885;28;20045;-70
2022/10/29 00:08:40;;;;;;;30.25;8.38;;;12.30;99.90;;;;;;5055796;28;20049;-71
2022/10/29 00:11:09;;;;;;;41.58;9.30;;;12.40;99.90;;;;;;5055619;28;20049;-71
2022/10/29 00:13:35;;;;;;;43.17;10.23;;;12.30;99.90;;;;;;5055983;28;20059;-72
2022/10/29 00:16:16;;;;;;;34.78;7.57;;;12.20;99.90;;;;;;5021673;28;20056;-72
2022/10/29 00:18:42;;;;;;;36.60;9.43;;;12.30;99.90;;;;;;5056318;28;20132;-72
2022/10/29 00:21:14;;;;;;;22.27;7.15;;;12.20;99.90;;;;;;5061268;28;20040;-70
2022/10/29 00:23:40;;;;;;;39.80;10.30;;;12.30;99.90;;;;;;5076256;28;20044;-72
2022/10/29 00:26:06;;;;;;;30.77;9.05;;;12.40;99.90;;;;;;5075842;28;20054;-73
2022/10/29 00:28:32;;;;;;;28.75;8.50;;;12.30;99.90;;;;;;5057898;28;20044;-71
2022/10/29 00:31:02;;;;;;;28.88;8.50;;;12.20;99.90;;;;;;5023298;28;20059;-71
2022/10/29 00:33:27;;;;;;;29.77;7.68;;;12.20;99.90;;;;;;5075984;28;20044;-71
2022/10/29 00:35:55;;;;;;;40.28;9.88;;;12.20;99.90;;;;;;5057752;28;20182;-71
2022/10/29 00:38:21;;;;;;;33.05;8.32;;;12.10;99.90;;;;;;5075485;28;20416;-71
2022/10/29 00:40:47;;;;;;;29.35;6.97;;;12.10;99.90;;;;;;5074366;28;20201;-72
2022/10/29 00:43:14;;;;;;;32.22;8.02;;;12.10;99.90;;;;;;5055474;28;20182;-72
2022/10/29 00:45:45;;;;;;;28.63;8.52;;;12.00;99.90;;;;;;5038615;28;20052;-72
2022/10/29 00:48:11;;;;;;;32.63;8.23;;;12.00;99.90;;;;;;5037809;28;20116;-72
2022/10/29 00:50:37;;;;;;;27.90;7.88;;;12.00;99.90;;;;;;5055439;28;20148;-71
2022/10/29 00:53:02;;;;;;;34.38;8.52;;;11.90;99.90;;;;;;5055285;28;20052;-71
2022/10/29 00:55:28;;;;;;;27.95;9.05;;;11.90;99.90;;;;;;5037431;28;20460;-73
2022/10/29 00:57:55;;;;;;;33.10;8.73;;;11.90;99.90;;;;;;5057272;28;20076;-71
2022/10/29 01:00:21;;;;;;;22.58;7.60;;;12.20;99.90;;;;;;5075210;28;20131;-71
2022/10/29 01:02:46;;;;;;;29.83;9.45;;;11.80;99.90;;;;;;5075027;28;20128;-72
2022/10/29 01:05:20;;;;;;;44.45;10.60;;;11.80;99.90;;;;;;5074656;28;20051;-70
2022/10/29 01:07:46;;;;;;;;;;;11.80;99.90;;;;;;5074968;28;20417;-71
2022/10/29 01:10:13;;;;;;;26.70;7.97;;;11.70;99.90;;;;;;5057719;28;19928;-70
2022/10/29 01:13:07;;;;;;;35.35;9.27;;;11.70;99.90;;;;;;5075236;28;20064;-73
2022/10/29 01:15:36;;;;;;;36.50;8.13;;;11.60;99.90;;;;;;5057150;28;20055;-73
2022/10/29 01:18:40;;;;;;;34.65;9.82;;;11.60;99.90;;;;;;5038651;28;20041;-73
2022/10/29 01:21:27;;;;;;;23.17;7.35;;;11.60;99.90;;;;;;5054010;28;20068;-71
2022/10/29 01:24:17;;;;;;;34.03;9.13;;;11.50;99.90;;;;;;5055759;28;20061;-70
2022/10/29 01:27:04;;;;;;;33.53;8.05;;;11.50;99.90;;;;;;5037444;28;20041;-71
2022/10/29 01:29:53;;;;;;;28.65;8.00;;;11.50;99.90;;;;;;5037551;28;20060;-72
2022/10/29 01:32:31;;;;;;;25.08;8.13;;;11.40;99.90;;;;;;5048382;28;20488;-71
2022/10/29 01:35:09;;;;;;;21.65;7.47;;;11.40;99.90;;;;;;5037123;28;20033;-72
2022/10/29 01:37:52;;;;;;;24.27;8.07;;;11.40;99.90;;;;;;5054867;28;20052;-72
2022/10/29 01:40:24;;;;;;;24.60;7.47;;;11.40;99.90;;;;;;5072007;28;20231;-73
2022/10/29 01:43:03;;;;;;;26.85;8.60;;;11.30;99.90;;;;;;5074900;28;20051;-72
2022/10/29 01:45:35;;;;;;;38.45;10.27;;;11.30;99.90;;;;;;5074901;28;20040;-70
2022/10/29 01:48:08;;;;;;;32.07;8.77;;;11.40;99.90;;;;;;5074624;28;20049;-70
2022/10/29 01:50:37;;;;;;;30.90;10.50;;;11.30;99.90;;;;;;5056937;28;20055;-73
2022/10/29 01:53:04;;;;;;;27.75;10.32;;;11.20;99.90;;;;;;5072906;28;20516;-72
2022/10/29 01:55:34;;;;;;;35.17;11.45;;;11.30;99.90;;;;;;5054267;28;20473;-71
2022/10/29 01:58:02;;;;;;;45.72;14.60;;;11.20;99.90;;;;;;5054856;28;20064;-71
2022/10/29 02:00:52;;;;;;;28.48;11.63;;;11.30;99.90;;;;;;5054709;28;20045;-72
2022/10/29 02:03:42;;;;;;;20.15;9.20;;;11.30;99.90;;;;;;5053990;28;20084;-74
2022/10/29 02:06:07;;;;;;;25.13;9.13;;;11.30;99.90;;;;;;5054688;28;20420;-72
2022/10/29 02:08:53;;;;;;;22.20;9.23;;;11.20;99.90;;;;;;5044052;28;20041;-71
2022/10/29 02:11:18;;;;;;;22.55;8.80;;;11.20;99.90;;;;;;5074132;28;20436;-71
2022/10/29 02:13:50;;;;;;;27.50;10.07;;;11.20;99.90;;;;;;5074168;28;20099;-72
2022/10/29 02:16:16;;;;;;;22.70;8.63;;;11.20;99.90;;;;;;5056897;28;20048;-70
2022/10/29 02:18:45;;;;;;;24.38;10.60;;;11.20;99.90;;;;;;5075262;28;20064;-72
2022/10/29 02:21:17;;;;;;;25.50;10.68;;;11.10;99.90;;;;;;5060366;28;20123;-71
2022/10/29 02:23:43;;;;;;;24.88;10.57;;;11.10;99.90;;;;;;5049194;28;20346;-71
2022/10/29 02:26:09;;;;;;;26.95;9.95;;;11.10;99.90;;;;;;5040791;28;20041;-71
2022/10/29 02:28:34;;;;;;;29.50;11.43;;;11.10;99.90;;;;;;5040115;28;20048;-70
2022/10/29 02:31:00;;;;;;;19.77;8.70;;;11.10;99.90;;;;;;5057979;28;20433;-73
2022/10/29 02:33:26;;;;;;;35.83;10.50;;;11.00;99.90;;;;;;5058567;28;20037;-71
2022/10/29 02:35:51;;;;;;;23.50;9.43;;;11.10;99.90;;;;;;5057591;28;20079;-72
2022/10/29 02:38:17;;;;;;;48.78;13.50;;;11.00;99.90;;;;;;5057451;28;20138;-70
2022/10/29 02:40:42;;;;;;;20.67;10.40;;;11.00;99.90;;;;;;5060360;28;20068;-70
2022/10/29 02:43:08;;;;;;;33.50;11.13;;;11.00;99.90;;;;;;5077654;28;20117;-72
2022/10/29 02:45:33;;;;;;;32.47;11.05;;;11.10;99.90;;;;;;5077580;28;20114;-70
2022/10/29 02:47:59;;;;;;;78.35;13.05;;;11.10;99.90;;;;;;5059728;28;20040;-73
2022/10/29 02:50:24;;;;;;;130.25;18.60;;;11.10;99.90;;;;;;5077708;28;20048;-71
2022/10/29 02:52:50;;;;;;;33.30;12.13;;;11.10;99.90;;;;;;5077547;28;20080;-71
2022/10/29 02:55:15;;;;;;;49.00;15.35;;;11.10;99.90;;;;;;5057661;28;20075;-71
2022/10/29 02:57:45;;;;;;;35.17;13.45;;;11.20;99.90;;;;;;5057352;28;20472;-72
2022/10/29 03:00:11;;;;;;;27.13;11.27;;;11.20;99.90;;;;;;5057206;28;20064;-71
2022/10/29 03:02:37;;;;;;;28.48;12.32;;;11.20;99.90;;;;;;5057307;28;20041;-70
2022/10/29 03:05:03;;;;;;;30.20;11.88;;;11.20;99.90;;;;;;5057147;28;20048;-71
2022/10/29 03:07:29;;;;;;;34.63;12.45;;;11.20;99.90;;;;;;5056814;28;20132;-71
2022/10/29 03:09:55;;;;;;;26.88;11.43;;;11.20;99.90;;;;;;5057025;28;20142;-72
2022/10/29 03:12:20;;;;;;;36.35;13.43;;;11.20;99.90;;;;;;5057273;28;20078;-72
2022/10/29 03:14:46;;;;;;;35.30;14.50;;;11.20;99.90;;;;;;5039556;28;20458;-73
2022/10/29 03:17:11;;;;;;;24.42;11.50;;;11.30;99.90;;;;;;5072214;28;20040;-71
2022/10/29 03:19:37;;;;;;;28.40;12.57;;;11.40;99.90;;;;;;5076969;28;20429;-71
2022/10/29 03:22:02;;;;;;;29.15;13.15;;;11.40;99.90;;;;;;5059227;28;20052;-70
2022/10/29 03:24:28;;;;;;;29.33;12.77;;;11.40;99.90;;;;;;5076752;28;20045;-70
2022/10/29 03:26:54;;;;;;;37.65;13.43;;;11.50;99.90;;;;;;5076749;28;20043;-72
2022/10/29 03:29:19;;;;;;;40.17;13.95;;;11.50;99.90;;;;;;5025115;28;20052;-72
2022/10/29 03:31:45;;;;;;;25.10;10.88;;;11.50;99.90;;;;;;5061340;28;20506;-71
2022/10/29 03:34:10;;;;;;;28.88;11.50;;;11.60;99.90;;;;;;5056361;28;20048;-71
2022/10/29 03:36:36;;;;;;;24.92;12.27;;;11.70;99.90;;;;;;5057338;28;20073;-71
2022/10/29 03:39:01;;;;;;;41.38;12.73;;;11.80;99.90;;;;;;5056669;28;20473;-72
2022/10/29 03:41:27;;;;;;;69.93;18.02;;;11.70;99.90;;;;;;5039332;28;20087;-71
2022/10/29 03:43:53;;;;;;;99.35;20.08;;;11.80;99.90;;;;;;5022577;28;20510;-71
2022/10/29 03:46:18;;;;;;;71.68;18.38;;;11.90;99.90;;;;;;5056434;28;20374;-72
2022/10/29 03:48:47;;;;;;;39.42;14.70;;;11.90;99.90;;;;;;5042150;28;20130;-71
2022/10/29 03:51:13;;;;;;;78.82;17.75;;;12.10;99.90;;;;;;5071856;28;20075;-71
2022/10/29 03:53:38;;;;;;;44.08;14.68;;;12.00;99.90;;;;;;5059540;28;20072;-71
2022/10/29 03:56:04;;;;;;;156.55;24.80;;;12.10;99.90;;;;;;5042062;28;20055;-72
2022/10/29 03:58:30;;;;;;;59.72;14.73;;;12.00;99.90;;;;;;5075698;28;20430;-72
2022/10/29 04:01:01;;;;;;;86.45;15.18;;;12.00;99.90;;;;;;5076804;28;20055;-71
2022/10/29 04:03:29;;;;;;;86.32;20.30;;;12.00;99.90;;;;;;5051441;28;20057;-71
2022/10/29 04:05:54;;;;;;;41.90;13.43;;;12.00;99.90;;;;;;5038750;28;20040;-71
2022/10/29 04:08:20;;;;;;;116.65;18.92;;;12.10;99.90;;;;;;5055890;28;20360;-71
2022/10/29 04:10:48;;;;;;;71.45;18.17;;;12.10;99.90;;;;;;5038619;28;20114;-72
2022/10/29 04:13:14;;;;;;;54.03;15.90;;;12.00;99.90;;;;;;5056567;28;20091;-71
2022/10/29 04:15:40;;;;;;;52.47;15.77;;;12.10;99.90;;;;;;5037949;28;20044;-72
2022/10/29 04:18:07;;;;;;;57.88;17.08;;;12.10;99.90;;;;;;5061810;28;20105;-74
2022/10/29 04:20:33;;;;;;;64.28;15.05;;;12.20;99.90;;;;;;5075560;28;20055;-70
2022/10/29 04:22:58;;;;;;;44.03;14.77;;;12.20;99.90;;;;;;5075651;28;20385;-72
2022/10/29 04:25:24;;;;;;;46.00;14.52;;;12.20;99.90;;;;;;5057796;28;20048;-71
2022/10/29 04:27:49;;;;;;;106.85;21.17;;;12.20;99.90;;;;;;5075855;28;20049;-71
2022/10/29 04:30:15;;;;;;;111.28;18.85;;;12.20;99.90;;;;;;5076307;28;20040;-71
2022/10/29 04:32:40;;;;;;;124.15;21.98;;;12.30;99.90;;;;;;5070248;28;20488;-71
2022/10/29 04:35:06;;;;;;;33.35;14.10;;;12.30;99.90;;;;;;5048987;28;20055;-70
2022/10/29 04:37:32;;;;;;;51.92;16.25;;;12.30;99.90;;;;;;5073765;28;20044;-72
2022/10/29 04:39:57;;;;;;;60.78;17.63;;;12.40;99.90;;;;;;5075410;28;20040;-71
2022/10/29 04:42:23;;;;;;;56.00;17.25;;;12.30;99.90;;;;;;5041181;28;20212;-70
2022/10/29 04:44:48;;;;;;;167.60;27.00;;;12.30;99.90;;;;;;5057705;28;20071;-71
2022/10/29 04:47:14;;;;;;;82.80;20.83;;;12.30;99.90;;;;;;5075536;28;20048;-73
2022/10/29 04:49:39;;;;;;;68.78;18.13;;;12.30;99.90;;;;;;5068642;28;20091;-71
2022/10/29 04:52:05;;;;;;;90.63;21.98;;;12.30;99.90;;;;;;5055136;28;20045;-71
2022/10/29 04:54:31;;;;;;;61.03;19.08;;;12.30;99.90;;;;;;5055007;28;20146;-71
2022/10/29 04:56:56;;;;;;;60.65;17.52;;;12.40;99.90;;;;;;5037871;28;20045;-72
2022/10/29 04:59:22;;;;;;;57.90;15.77;;;12.40;99.90;;;;;;5055194;28;20053;-71
2022/10/29 05:01:47;;;;;;;70.35;15.65;;;12.40;99.90;;;;;;5055019;28;20053;-72
2022/10/29 05:04:13;;;;;;;110.53;23.33;;;12.50;99.90;;;;;;5060023;28;20052;-72
2022/10/29 05:06:39;;;;;;;71.15;18.75;;;12.40;99.90;;;;;;5075408;28;20441;-71
2022/10/29 05:09:04;;;;;;;57.95;18.23;;;12.40;99.90;;;;;;5075270;28;20048;-71
2022/10/29 05:11:30;;;;;;;125.63;24.50;;;12.40;99.90;;;;;;5057711;28;20059;-72
2022/10/29 05:13:55;;;;;;;70.72;18.38;;;12.50;99.90;;;;;;5057574;28;20055;-71
2022/10/29 05:16:21;;;;;;;144.20;23.58;;;12.50;99.90;;;;;;5074958;28;20449;-71
2022/10/29 05:18:47;;;;;;;58.47;18.23;;;12.50;99.90;;;;;;5053578;28;20110;-71
2022/10/29 05:21:12;;;;;;;44.85;15.88;;;12.50;99.90;;;;;;5055081;28;20041;-72
2022/10/29 05:23:38;;;;;;;57.55;18.80;;;12.50;99.90;;;;;;5038215;28;20353;-72
2022/10/29 05:26:04;;;;;;;126.63;22.38;;;12.50;99.90;;;;;;5055507;28;20079;-71
2022/10/29 05:28:29;;;;;;;53.10;16.23;;;12.50;99.90;;;;;;5061477;28;20028;-72
2022/10/29 05:30:55;;;;;;;105.45;21.10;;;12.50;99.90;;;;;;5040120;28;20060;-74
2022/10/29 05:33:22;;;;;;;91.20;18.85;;;12.50;99.90;;;;;;5066275;28;20469;-72
2022/10/29 05:35:48;;;;;;;159.98;23.30;;;12.60;99.90;;;;;;5075140;28;20059;-73
2022/10/29 05:38:16;;;;;;;200.35;28.08;;;12.50;99.90;;;;;;5075031;28;20033;-70
2022/10/29 05:40:44;;;;;;;57.65;17.70;;;12.50;99.90;;;;;;5053794;28;20047;-73
2022/10/29 05:43:11;;;;;;;81.80;20.17;;;12.60;99.90;;;;;;5044069;28;20179;-74
2022/10/29 05:45:37;;;;;;;95.25;18.88;;;12.60;99.90;;;;;;5022818;28;20144;-72
2022/10/29 05:48:03;;;;;;;63.10;17.42;;;12.60;99.90;;;;;;5031917;28;20131;-73
2022/10/29 05:50:30;;;;;;;43.30;16.55;;;12.60;99.90;;;;;;5016263;28;20054;-75
2022/10/29 05:52:58;;;;;;;148.15;22.63;;;12.60;99.90;;;;;;5032804;28;20405;-73
2022/10/29 05:55:24;;;;;;;116.75;25.80;;;12.60;99.90;;;;;;5035850;28;20049;-74
2022/10/29 05:57:53;;;;;;;57.42;17.58;;;12.60;99.90;;;;;;5049321;28;20052;-73
2022/10/29 06:00:19;;;;;;;53.42;18.40;;;12.60;99.90;;;;;;5055688;28;20099;-73
2022/10/29 06:02:45;;;;;;;93.60;19.92;;;12.60;99.90;;;;;;5039707;28;20056;-71
2022/10/29 06:05:10;;;;;;;70.68;18.17;;;12.60;99.90;;;;;;5056504;28;20446;-73
2022/10/29 06:07:36;;;;;;;79.38;20.10;;;12.60;99.90;;;;;;5056521;28;20040;-74
2022/10/29 06:10:01;;;;;;;46.85;17.42;;;12.70;99.90;;;;;;5056164;28;20045;-72
2022/10/29 06:12:31;;;;;;;124.13;22.63;;;12.70;99.90;;;;;;5056768;28;20381;-73
2022/10/29 06:14:56;;;;;;;75.53;19.65;;;12.70;99.90;;;;;;5074193;28;20118;-73
2022/10/29 06:17:22;;;;;;;84.47;22.10;;;12.70;99.90;;;;;;5077960;28;20041;-72
2022/10/29 06:19:47;;;;;;;111.43;22.52;;;12.70;99.90;;;;;;5077457;28;20120;-73
2022/10/29 06:22:13;;;;;;;123.20;23.98;;;12.70;99.90;;;;;;5078200;28;20055;-73
2022/10/29 06:24:38;;;;;;;52.78;18.70;;;12.70;99.90;;;;;;5077699;28;20515;-73
2022/10/29 06:27:04;;;;;;;101.75;21.40;;;12.70;99.90;;;;;;5077955;28;20352;-72
2022/10/29 06:29:29;;;;;;;57.40;17.75;;;12.70;99.90;;;;;;5077264;28;20044;-74
2022/10/29 06:31:55;;;;;;;75.53;21.77;;;12.80;99.90;;;;;;5077651;28;20055;-72
2022/10/29 06:34:20;;;;;;;106.15;23.58;;;12.80;99.90;;;;;;5077637;28;20029;-70
2022/10/29 06:36:46;;;;;;;78.97;21.48;;;12.80;99.90;;;;;;5078053;28;20095;-70
2022/10/29 06:39:12;;;;;;;64.47;21.67;;;12.90;99.90;;;;;;5077495;28;20128;-74
2022/10/29 06:41:37;;;;;;;46.42;18.60;;;12.80;99.90;;;;;;5078012;28;20174;-72
2022/10/29 06:44:03;;;;;;;54.78;19.63;;;12.80;99.90;;;;;;5059023;28;20369;-72
2022/10/29 06:46:29;;;;;;;83.85;18.95;;;12.80;99.90;;;;;;5040576;28;20345;-73
2022/10/29 06:48:55;;;;;;;117.93;21.25;;;13.10;99.90;;;;;;5057497;28;20045;-72
2022/10/29 06:51:22;;;;;;;76.75;19.85;;;12.90;99.90;;;;;;5057426;28;20333;-73
2022/10/29 06:53:48;;;;;;;82.20;20.73;;;13.00;99.90;;;;;;5039747;28;20088;-70
2022/10/29 06:56:13;;;;;;;105.25;21.05;;;13.00;99.90;;;;;;5059280;28;20083;-70
2022/10/29 06:58:39;;;;;;;66.93;19.30;;;13.00;99.90;;;;;;5076093;28;20045;-72
2022/10/29 07:01:05;;;;;;;72.65;20.80;;;13.00;99.90;;;;;;5076284;28;20111;-71
2022/10/29 07:03:30;;;;;;;70.22;20.83;;;13.10;99.90;;;;;;5076625;28;20179;-72
2022/10/29 07:05:57;;;;;;;59.25;19.67;;;13.20;99.90;;;;;;5076125;28;20052;-69
2022/10/29 07:08:23;;;;;;;119.93;22.65;;;13.10;99.90;;;;;;5077465;28;20041;-73
2022/10/29 07:10:51;;;;;;;82.78;21.48;;;13.20;99.90;;;;;;5064330;28;20365;-73
2022/10/29 07:13:16;;;;;;;65.65;20.38;;;13.20;99.90;;;;;;5056983;28;20212;-73
2022/10/29 07:15:42;;;;;;;73.47;19.83;;;13.20;99.90;;;;;;5056903;28;20059;-72
2022/10/29 07:18:09;;;;;;;83.50;20.25;;;13.10;99.90;;;;;;5039295;28;20049;-73
2022/10/29 07:20:37;;;;;;;93.90;21.73;;;13.30;99.90;;;;;;5056742;28;20100;-73
2022/10/29 07:23:03;;;;;;;138.52;23.85;;;13.30;99.90;;;;;;5056826;28;20098;-72
2022/10/29 07:25:29;;;;;;;54.42;17.55;;;13.30;99.90;;;;;;5074808;28;20045;-73
2022/10/29 07:28:01;;;;;;;141.38;25.42;;;13.30;99.90;;;;;;5076714;28;20049;-73
2022/10/29 07:30:26;;;;;;;152.02;25.98;;;13.40;99.90;;;;;;5076587;28;20084;-73
2022/10/29 07:32:52;;;;;;;74.10;22.50;;;13.40;99.90;;;;;;5076626;28;20083;-72
2022/10/29 07:35:18;;;;;;;115.85;23.35;;;13.30;99.90;;;;;;5059170;28;20044;-72
2022/10/29 07:37:43;;;;;;;106.53;24.45;;;13.40;99.90;;;;;;5055367;28;20085;-71
2022/10/29 07:40:09;;;;;;;153.10;30.33;;;13.40;99.90;;;;;;5071216;28;20098;-72
2022/10/29 07:42:35;;;;;;;80.63;24.15;;;13.40;99.90;;;;;;5076382;28;20072;-72
2022/10/29 07:45:00;;;;;;;110.70;28.25;;;13.40;99.90;;;;;;5076435;28;20086;-72
2022/10/29 07:47:26;;;;;;;92.53;29.55;;;13.40;99.90;;;;;;5076754;28;20055;-73
2022/10/29 07:49:51;;;;;;;70.03;27.80;;;13.50;99.90;;;;;;5076700;28;20063;-72
2022/10/29 07:52:17;;;;;;;94.10;29.70;;;13.50;99.90;;;;;;5076316;28;20048;-73
2022/10/29 07:54:42;;;;;;;129.02;34.95;;;13.50;99.90;;;;;;5058872;28;20469;-71
2022/10/29 07:57:08;;;;;;;186.43;36.60;;;13.50;99.90;;;;;;5076571;28;20080;-73
2022/10/29 07:59:33;;;;;;;152.63;38.15;;;13.50;99.90;;;;;;5076425;28;20055;-73
2022/10/29 08:01:59;;;;;;;98.00;33.47;;;13.50;99.90;;;;;;5075951;28;20507;-72
2022/10/29 08:04:25;;;;;;;91.82;33.25;;;13.50;99.90;;;;;;5058030;28;20067;-72
2022/10/29 08:06:50;;;;;;;106.45;34.90;;;13.60;99.90;;;;;;5076370;28;20053;-71
2022/10/29 08:09:16;;;;;;;87.80;32.97;;;13.60;99.90;;;;;;5075923;28;20453;-72
2022/10/29 08:11:41;;;;;;;89.60;30.60;;;13.60;99.90;;;;;;5058177;28;20406;-71
2022/10/29 08:14:07;;;;;;;69.43;29.63;;;13.70;99.90;;;;;;5075642;28;20057;-73
2022/10/29 08:16:32;;;;;;;77.22;32.75;;;13.70;99.90;;;;;;5075693;28;20116;-74
2022/10/29 08:18:58;;;;;;;74.43;32.25;;;13.70;99.90;;;;;;5075842;28;20040;-72
2022/10/29 08:21:24;;;;;;;79.18;32.20;;;13.70;99.90;;;;;;5075750;28;20462;-73
2022/10/29 08:23:50;;;;;;;71.95;32.80;;;13.70;99.90;;;;;;5029678;28;20059;-71
2022/10/29 08:26:15;;;;;;;68.82;31.40;;;13.80;99.90;;;;;;5071068;28;20055;-72
2022/10/29 08:28:41;;;;;;;68.47;29.27;;;13.80;99.90;;;;;;5075483;28;20044;-71
2022/10/29 08:31:08;;;;;;;64.28;30.45;;;13.80;99.90;;;;;;5075441;28;20113;-73
2022/10/29 08:33:33;;;;;;;58.10;29.17;;;14.00;99.90;;;;;;5075936;28;20373;-71
2022/10/29 08:35:59;;;;;;;90.22;33.53;;;14.10;99.90;;;;;;5057681;28;20055;-73
2022/10/29 08:38:24;;;;;;;57.85;29.52;;;14.00;99.90;;;;;;5058097;28;20051;-72
2022/10/29 08:41:05;;;;;;;62.47;29.25;;;14.10;99.90;;;;;;5057667;28;20048;-72
2022/10/29 08:44:00;;;;;;;56.90;28.20;;;14.10;99.90;;;;;;5055239;28;20211;-73
2022/10/29 08:46:59;;;;;;;51.85;27.50;;;14.20;99.90;;;;;;5055515;28;20392;-72
2022/10/29 08:49:27;;;;;;;50.83;27.20;;;14.20;99.90;;;;;;5055185;28;20482;-72
2022/10/29 08:52:18;;;;;;;51.97;25.80;;;14.20;99.90;;;;;;5037173;28;20449;-74
2022/10/29 08:54:50;;;;;;;50.50;25.95;;;14.30;99.90;;;;;;5055274;28;20056;-72
2022/10/29 08:57:19;;;;;;;47.45;24.23;;;14.40;99.90;;;;;;5067873;28;20055;-73
2022/10/29 09:00:05;;;;;;;44.55;22.98;;;14.30;99.90;;;;;;5074993;28;20056;-72
2022/10/29 09:02:30;;;;;;;44.03;23.98;;;14.40;99.90;;;;;;5075078;28;20132;-73
2022/10/29 09:04:56;;;;;;;50.45;25.25;;;14.40;99.90;;;;;;5074920;28;20424;-72
2022/10/29 09:07:45;;;;;;;48.50;25.00;;;14.50;99.90;;;;;;5075076;28;20041;-72
2022/10/29 09:10:24;;;;;;;50.58;24.45;;;14.70;99.90;;;;;;5073889;28;20114;-72
2022/10/29 09:13:01;;;;;;;49.45;25.30;;;14.70;99.90;;;;;;5075121;28;20059;-71
2022/10/29 09:15:53;;;;;;;40.53;21.02;;;14.80;99.90;;;;;;5075283;28;20053;-73
2022/10/29 09:18:37;;;;;;;42.25;22.15;;;14.80;99.90;;;;;;5057285;28;20056;-74
2022/10/29 09:21:33;;;;;;;45.15;22.98;;;14.90;99.90;;;;;;5074826;28;20048;-73
2022/10/29 09:24:40;;;;;;;40.85;21.33;;;14.90;99.90;;;;;;5075092;28;20056;-73
2022/10/29 09:27:38;;;;;;;40.90;21.20;;;15.00;99.90;;;;;;5074683;28;20115;-71
2022/10/29 09:30:13;;;;;;;39.47;20.38;;;14.90;99.90;;;;;;5060800;28;20135;-72
2022/10/29 09:32:45;;;;;;;34.08;20.08;;;15.00;99.90;;;;;;5061173;28;20464;-71
2022/10/29 09:35:14;;;;;;;43.30;21.25;;;15.00;99.90;;;;;;5061321;28;20040;-74
2022/10/29 09:37:51;;;;;;;39.50;19.42;;;15.10;99.90;;;;;;5078741;28;20055;-72
2022/10/29 09:40:38;;;;;;;42.13;20.40;;;15.20;99.90;;;;;;5078832;28;20117;-72
2022/10/29 09:43:48;;;;;;;35.47;18.00;;;15.20;99.90;;;;;;5078778;28;20040;-73
2022/10/29 09:46:34;;;;;;;39.58;20.10;;;15.20;99.90;;;;;;5078639;28;20086;-73
2022/10/29 09:49:17;;;;;;;38.83;19.15;;;15.30;99.90;;;;;;5078992;28;20048;-71
2022/10/29 09:51:59;;;;;;;37.95;18.60;;;15.20;99.90;;;;;;5078795;28;20137;-72
2022/10/29 09:54:28;;;;;;;38.20;18.30;;;15.20;99.90;;;;;;5078323;28;20045;-73
2022/10/29 09:56:56;;;;;;;39.05;19.20;;;15.20;99.90;;;;;;5078779;28;20370;-71
2022/10/29 09:59:35;;;;;;;43.58;20.67;;;15.10;99.90;;;;;;5077930;28;20044;-73
2022/10/29 10:02:03;;;;;;;37.25;18.85;;;15.20;99.90;;;;;;5078335;28;20113;-72
2022/10/29 10:04:38;;;;;;;40.67;19.58;;;15.20;99.90;;;;;;5078240;28;20063;-72
2022/10/29 10:07:12;;;;;;;38.47;19.23;;;15.20;99.90;;;;;;5078047;28;20470;-71
2022/10/29 10:09:51;;;;;;;;;;;15.30;99.90;;;;;;5078771;28;20356;-72
2022/10/29 10:12:23;;;;;;;36.90;18.95;;;15.30;99.90;;;;;;5078351;28;19920;-72
2022/10/29 10:15:20;;;;;;;36.30;18.23;;;15.40;99.90;;;;;;5077751;28;20467;-72
2022/10/29 10:17:53;;;;;;;36.15;18.67;;;15.60;99.90;;;;;;5064072;28;20064;-73
2022/10/29 10:20:36;;;;;;;37.85;18.77;;;15.70;99.90;;;;;;5078089;28;20456;-73
2022/10/29 10:23:37;;;;;;;38.42;18.45;;;15.80;99.90;;;;;;5078263;28;20059;-71
2022/10/29 10:26:03;;;;;;;39.80;20.52;;;15.90;99.90;;;;;;5077959;28;20044;-72
2022/10/29 10:28:33;;;;;;;35.95;20.08;;;16.00;99.90;;;;;;5077967;28;20036;-72
2022/10/29 10:31:09;;;;;;;42.63;20.95;;;16.00;99.90;;;;;;5060129;28;20079;-72
2022/10/29 10:33:42;;;;;;;40.90;20.70;;;16.10;99.90;;;;;;5078031;28;20055;-71
2022/10/29 10:36:08;;;;;;;;;;;16.10;99.90;;;;;;5043966;28;20056;-73
2022/10/29 10:38:46;;;;;;;35.20;19.92;;;16.10;99.90;;;;;;5077695;28;20246;-72
2022/10/29 10:41:13;;;;;;;31.55;19.50;;;16.20;99.90;;;;;;5059925;28;20048;-73
2022/10/29 10:43:44;;;;;;;36.40;20.20;;;16.30;99.90;;;;;;5077510;28;20052;-73
2022/10/29 10:46:15;;;;;;;36.63;21.10;;;16.30;99.90;;;;;;5077853;28;20114;-73
2022/10/29 10:48:40;;;;;;;30.48;18.83;;;16.40;99.90;;;;;;5077414;28;20090;-71
2022/10/29 10:51:31;;;;;;;35.58;19.83;;;16.50;99.90;;;;;;5077932;28;20041;-73
2022/10/29 10:53:59;;;;;;;38.88;18.83;;;16.60;99.90;;;;;;5067259;28;20064;-72
2022/10/29 10:56:24;;;;;;;34.53;18.58;;;16.70;99.90;;;;;;5077574;28;20055;-73
2022/10/29 10:59:03;;;;;;;32.75;17.38;;;16.80;99.90;;;;;;5054973;28;20060;-72
2022/10/29 11:01:36;;;;;;;32.97;16.30;;;16.90;99.90;;;;;;5075407;28;20399;-70
2022/10/29 11:04:10;;;;;;;32.38;16.65;;;17.00;99.90;;;;;;5061420;28;20087;-70
2022/10/29 11:06:42;;;;;;;33.25;17.33;;;17.10;99.90;;;;;;5057005;28;20136;-70
2022/10/29 11:09:13;;;;;;;31.08;15.75;;;17.20;99.90;;;;;;5048006;28;20082;-72
2022/10/29 11:11:44;;;;;;;29.70;14.25;;;17.30;99.90;;;;;;5047975;28;20105;-70
2022/10/29 11:14:21;;;;;;;26.25;14.60;;;17.40;99.90;;;;;;5068933;28;20094;-73
2022/10/29 11:16:56;;;;;;;28.98;14.15;;;17.50;99.90;;;;;;5076821;28;20037;-70
2022/10/29 11:19:35;;;;;;;24.33;13.65;;;17.60;99.90;;;;;;5076563;28;20040;-71
2022/10/29 11:22:32;;;;;;;25.63;14.15;;;17.80;99.90;;;;;;5076960;28;20535;-70
2022/10/29 11:25:15;;;;;;;23.23;12.88;;;18.00;99.90;;;;;;5076702;28;20123;-71
2022/10/29 11:28:19;;;;;;;21.75;12.55;;;18.10;99.90;;;;;;5075072;28;20044;-70
2022/10/29 11:31:07;;;;;;;24.13;11.98;;;18.10;99.90;;;;;;5045887;28;20117;-70
2022/10/29 11:34:03;;;;;;;24.15;11.73;;;18.10;99.90;;;;;;5072418;28;20111;-70
2022/10/29 11:36:41;;;;;;;27.23;12.85;;;18.20;99.90;;;;;;5059428;28;20041;-71
2022/10/29 11:39:14;;;;;;;26.42;12.77;;;18.30;99.90;;;;;;5076601;28;20131;-71
2022/10/29 11:41:49;;;;;;;24.52;11.55;;;18.20;99.90;;;;;;5076558;28;20131;-72
2022/10/29 11:44:16;;;;;;;18.80;11.57;;;18.40;99.90;;;;;;5076540;28;20411;-72
2022/10/29 11:47:18;;;;;;;21.08;10.57;;;18.40;99.90;;;;;;5076302;28;20110;-70
2022/10/29 11:50:01;;;;;;;20.85;11.02;;;18.40;99.90;;;;;;5075615;28;20437;-71
2022/10/29 11:52:42;;;;;;;19.30;11.35;;;18.60;99.90;;;;;;5074947;28;20055;-72
2022/10/29 11:55:34;;;;;;;20.95;10.32;;;18.50;99.90;;;;;;5075820;28;20103;-71
2022/10/29 11:58:09;;;;;;;18.90;9.40;;;18.60;99.90;;;;;;5075845;28;20053;-68
2022/10/29 12:01:09;;;;;;;21.02;9.52;;;18.60;99.90;;;;;;5041085;28;20048;-68
2022/10/29 12:03:40;;;;;;;19.17;8.68;;;18.70;99.90;;;;;;5074082;28;20036;-70
2022/10/29 12:06:09;;;;;;;18.88;8.45;;;18.80;99.90;;;;;;5075645;28;20504;-69
2022/10/29 12:08:56;;;;;;;23.98;8.50;;;18.90;99.90;;;;;;5057926;28;20044;-71
2022/10/29 12:11:34;;;;;;;23.35;9.20;;;19.00;99.90;;;;;;5071864;28;20124;-70
2022/10/29 12:14:17;;;;;;;23.80;9.10;;;19.00;99.90;;;;;;5075289;28;20476;-71
2022/10/29 12:16:42;;;;;;;;;;;19.00;99.90;;;;;;5076032;28;20052;-71
2022/10/29 12:19:11;;;;;;;18.85;9.43;;;18.90;99.90;;;;;;5075176;28;19920;-71
2022/10/29 12:22:01;;;;;;;25.75;10.48;;;19.00;99.90;;;;;;5075550;28;20377;-73
2022/10/29 12:25:03;;;;;;;23.85;9.73;;;19.00;99.90;;;;;;5075321;28;20041;-70
2022/10/29 12:27:29;;;;;;;23.95;9.52;;;19.00;99.90;;;;;;5075629;28;20057;-73
2022/10/29 12:29:57;;;;;;;22.25;10.00;;;19.00;99.90;;;;;;5075435;28;20041;-74
2022/10/29 12:32:31;;;;;;;21.83;9.52;;;19.00;99.90;;;;;;5053920;28;20458;-73
2022/10/29 12:34:57;;;;;;;21.58;8.68;;;19.10;99.90;;;;;;5054594;28;20388;-73
2022/10/29 12:37:41;;;;;;;20.95;8.35;;;19.10;99.90;;;;;;5038085;28;20128;-71
2022/10/29 12:40:18;;;;;;;24.65;9.05;;;19.10;99.90;;;;;;5055363;28;20049;-72
2022/10/29 12:42:46;;;;;;;19.42;8.65;;;19.00;99.90;;;;;;5037878;28;20136;-70
2022/10/29 12:45:36;;;;;;;24.13;9.13;;;19.00;99.90;;;;;;5052490;28;20365;-70
2022/10/29 12:48:34;;;;;;;22.67;9.27;;;19.00;99.90;;;;;;5054994;28;20433;-70